sensor_id;sensor_type;location;lat;lon;timestamp;pressure;altitude;pressure_sealevel;temperature;humidity
7182;BME280;3632;42.724;23.298;2023-04-09T00:00:10;95589.38;;;9.00;99.80
7182;BME280;3632;42.724;23.298;2023-04-09T00:02:37;95590.78;;;9.04;99.59
7182;BME280;3632;42.724;23.298;2023-04-09T00:05:04;95217.56;;;6.37;98.71
7182;BME280;3632;42.724;23.298;2023-04-09T00:07:31;95591.59;;;8.92;100.00
7182;BME280;3632;42.724;23.298;2023-04-09T00:09:59;95468.41;;;8.09;100.00
7182;BME280;3632;42.724;23.298;2023-04-09T00:12:26;95595.25;;;8.88;100.00
7182;BME280;3632;42.724;23.298;2023-04-09T00:14:54;95598.22;;;8.82;100.00
7182;BME280;3632;42.724;23.298;2023-04-09T00:17:21;95600.34;;;8.88;100.00
7182;BME280;3632;42.724;23.298;2023-04-09T00:19:48;95597.19;;;8.97;100.00
7182;BME280;3632;42.724;23.298;2023-04-09T00:22:15;95477.47;;;8.25;100.00
7182;BME280;3632;42.724;23.298;2023-04-09T00:24:41;95599.84;;;9.08;99.78
7182;BME280;3632;42.724;23.298;2023-04-09T00:27:10;95555.53;;;8.87;100.00
7182;BME280;3632;42.724;23.298;2023-04-09T00:29:36;95601.97;;;9.14;99.33
7182;BME280;3632;42.724;23.298;2023-04-09T00:32:03;95601.47;;;9.09;100.00
7182;BME280;3632;42.724;23.298;2023-04-09T00:34:30;95603.38;;;9.18;99.71
7182;BME280;3632;42.724;23.298;2023-04-09T00:36:57;95493.84;;;8.47;98.77
7182;BME280;3632;42.724;23.298;2023-04-09T00:39:24;95610.31;;;9.16;98.76
7182;BME280;3632;42.724;23.298;2023-04-09T00:41:55;95611.84;;;9.18;99.01
7182;BME280;3632;42.724;23.298;2023-04-09T00:44:24;95607.25;;;9.24;99.75
7182;BME280;3632;42.724;23.298;2023-04-09T00:46:51;95600.25;;;9.02;100.00
7182;BME280;3632;42.724;23.298;2023-04-09T00:49:18;95531.22;;;8.70;100.00
7182;BME280;3632;42.724;23.298;2023-04-09T00:51:45;95583.38;;;9.01;100.00
7182;BME280;3632;42.724;23.298;2023-04-09T00:54:14;95639.00;;;9.05;100.00
7182;BME280;3632;42.724;23.298;2023-04-09T00:56:41;95542.19;;;8.58;100.00
7182;BME280;3632;42.724;23.298;2023-04-09T00:59:08;95595.38;;;8.99;100.00
7182;BME280;3632;42.724;23.298;2023-04-09T01:01:36;95597.41;;;9.06;100.00
7182;BME280;3632;42.724;23.298;2023-04-09T01:04:03;95595.69;;;9.07;100.00
7182;BME280;3632;42.724;23.298;2023-04-09T01:06:37;95470.47;;;8.29;100.00
7182;BME280;3632;42.724;23.298;2023-04-09T01:09:13;95296.13;;;7.16;99.93
7182;BME280;3632;42.724;23.298;2023-04-09T01:11:52;95601.59;;;9.07;98.84
7182;BME280;3632;42.724;23.298;2023-04-09T01:14:26;95097.16;;;5.81;98.48
7182;BME280;3632;42.724;23.298;2023-04-09T01:17:01;95604.00;;;8.96;100.00
7182;BME280;3632;42.724;23.298;2023-04-09T01:19:43;95515.41;;;7.62;99.98
7182;BME280;3632;42.724;23.298;2023-04-09T01:22:23;95608.97;;;8.60;100.00
7182;BME280;3632;42.724;23.298;2023-04-09T01:25:02;95612.94;;;8.51;100.00
7182;BME280;3632;42.724;23.298;2023-04-09T01:27:36;95638.59;;;8.34;100.00
7182;BME280;3632;42.724;23.298;2023-04-09T01:30:08;95609.84;;;8.34;100.00
7182;BME280;3632;42.724;23.298;2023-04-09T01:32:36;95501.00;;;7.63;100.00
7182;BME280;3632;42.724;23.298;2023-04-09T01:35:06;95617.00;;;8.54;100.00
7182;BME280;3632;42.724;23.298;2023-04-09T01:37:34;94974.44;;;4.54;100.00
7182;BME280;3632;42.724;23.298;2023-04-09T01:40:01;95616.81;;;8.69;100.00
7182;BME280;3632;42.724;23.298;2023-04-09T01:42:30;95622.53;;;8.86;99.97
7182;BME280;3632;42.724;23.298;2023-04-09T01:44:59;95610.34;;;8.91;100.00
7182;BME280;3632;42.724;23.298;2023-04-09T01:47:29;95619.88;;;9.00;99.05
7182;BME280;3632;42.724;23.298;2023-04-09T01:49:56;95637.56;;;8.89;99.06
7182;BME280;3632;42.724;23.298;2023-04-09T01:52:23;95606.97;;;9.03;99.80
7182;BME280;3632;42.724;23.298;2023-04-09T01:54:50;94990.91;;;5.15;98.96
7182;BME280;3632;42.724;23.298;2023-04-09T01:57:16;95614.38;;;8.81;100.00
7182;BME280;3632;42.724;23.298;2023-04-09T01:59:43;95618.72;;;8.66;100.00
7182;BME280;3632;42.724;23.298;2023-04-09T02:02:16;95533.63;;;8.21;100.00
7182;BME280;3632;42.724;23.298;2023-04-09T02:04:48;95611.13;;;8.79;100.00
7182;BME280;3632;42.724;23.298;2023-04-09T02:07:22;95606.75;;;8.81;100.00
7182;BME280;3632;42.724;23.298;2023-04-09T02:09:54;95612.13;;;8.63;100.00
7182;BME280;3632;42.724;23.298;2023-04-09T02:12:22;95609.06;;;8.58;100.00
7182;BME280;3632;42.724;23.298;2023-04-09T02:14:51;95610.47;;;8.37;100.00
7182;BME280;3632;42.724;23.298;2023-04-09T02:17:18;95612.69;;;8.29;100.00
7182;BME280;3632;42.724;23.298;2023-04-09T02:19:46;95586.38;;;8.03;100.00
7182;BME280;3632;42.724;23.298;2023-04-09T02:22:14;95468.31;;;7.31;100.00
7182;BME280;3632;42.724;23.298;2023-04-09T02:24:41;95602.91;;;8.23;100.00
7182;BME280;3632;42.724;23.298;2023-04-09T02:27:08;95606.44;;;8.20;100.00
7182;BME280;3632;42.724;23.298;2023-04-09T02:29:35;95207.50;;;4.97;100.00
7182;BME280;3632;42.724;23.298;2023-04-09T02:32:02;95735.28;;;8.58;100.00
7182;BME280;3632;42.724;23.298;2023-04-09T02:34:28;95473.66;;;7.80;100.00
7182;BME280;3632;42.724;23.298;2023-04-09T02:36:57;95406.97;;;7.39;100.00
7182;BME280;3632;42.724;23.298;2023-04-09T02:39:23;95616.09;;;8.55;100.00
7182;BME280;3632;42.724;23.298;2023-04-09T02:41:51;95486.75;;;7.87;100.00
7182;BME280;3632;42.724;23.298;2023-04-09T02:44:18;95589.94;;;8.40;100.00
7182;BME280;3632;42.724;23.298;2023-04-09T02:46:47;95332.59;;;6.74;100.00
7182;BME280;3632;42.724;23.298;2023-04-09T02:49:14;95607.44;;;8.70;99.46
7182;BME280;3632;42.724;23.298;2023-04-09T02:51:40;95610.94;;;8.69;100.00
7182;BME280;3632;42.724;23.298;2023-04-09T02:54:09;95596.09;;;8.76;99.99
7182;BME280;3632;42.724;23.298;2023-04-09T02:56:35;95420.94;;;7.59;99.29
7182;BME280;3632;42.724;23.298;2023-04-09T02:59:02;95600.66;;;8.70;99.45
7182;BME280;3632;42.724;23.298;2023-04-09T03:01:29;95602.38;;;8.70;98.09
7182;BME280;3632;42.724;23.298;2023-04-09T03:03:55;95605.31;;;8.51;98.93
7182;BME280;3632;42.724;23.298;2023-04-09T03:06:22;95603.19;;;8.70;98.18
7182;BME280;3632;42.724;23.298;2023-04-09T03:08:49;95602.78;;;8.64;98.83
7182;BME280;3632;42.724;23.298;2023-04-09T03:11:17;95612.22;;;8.49;99.28
7182;BME280;3632;42.724;23.298;2023-04-09T03:13:44;95289.94;;;5.56;98.93
7182;BME280;3632;42.724;23.298;2023-04-09T03:16:10;95557.88;;;8.12;99.24
7182;BME280;3632;42.724;23.298;2023-04-09T03:18:37;95602.78;;;8.51;99.51
7182;BME280;3632;42.724;23.298;2023-04-09T03:21:04;95192.44;;;5.10;98.56
7182;BME280;3632;42.724;23.298;2023-04-09T03:23:32;95451.00;;;7.38;99.03
7182;BME280;3632;42.724;23.298;2023-04-09T03:26:00;95599.31;;;8.13;100.00
7182;BME280;3632;42.724;23.298;2023-04-09T03:28:28;95600.41;;;8.09;100.00
7182;BME280;3632;42.724;23.298;2023-04-09T03:30:55;95602.03;;;8.10;100.00
7182;BME280;3632;42.724;23.298;2023-04-09T03:33:22;95590.69;;;7.89;100.00
7182;BME280;3632;42.724;23.298;2023-04-09T03:35:50;95604.81;;;7.52;100.00
7182;BME280;3632;42.724;23.298;2023-04-09T03:38:16;95597.44;;;7.75;100.00
7182;BME280;3632;42.724;23.298;2023-04-09T03:40:43;95131.75;;;4.39;100.00
7182;BME280;3632;42.724;23.298;2023-04-09T03:43:10;95607.47;;;7.77;100.00
7182;BME280;3632;42.724;23.298;2023-04-09T03:45:38;95199.59;;;5.03;100.00
7182;BME280;3632;42.724;23.298;2023-04-09T03:48:05;95597.50;;;7.47;100.00
7182;BME280;3632;42.724;23.298;2023-04-09T03:50:37;95599.94;;;7.49;100.00
7182;BME280;3632;42.724;23.298;2023-04-09T03:53:03;95608.88;;;7.68;100.00
7182;BME280;3632;42.724;23.298;2023-04-09T03:55:30;95605.75;;;7.51;100.00
7182;BME280;3632;42.724;23.298;2023-04-09T03:57:57;95615.03;;;7.64;100.00
7182;BME280;3632;42.724;23.298;2023-04-09T04:00:23;95512.84;;;6.66;100.00
7182;BME280;3632;42.724;23.298;2023-04-09T04:02:51;95614.59;;;7.58;100.00
7182;BME280;3632;42.724;23.298;2023-04-09T04:05:21;95396.19;;;5.84;100.00
7182;BME280;3632;42.724;23.298;2023-04-09T04:07:47;95619.41;;;7.62;100.00
7182;BME280;3632;42.724;23.298;2023-04-09T04:10:14;95396.31;;;6.25;100.00
7182;BME280;3632;42.724;23.298;2023-04-09T04:12:41;95617.69;;;7.63;100.00
7182;BME280;3632;42.724;23.298;2023-04-09T04:15:08;95621.47;;;7.70;100.00
7182;BME280;3632;42.724;23.298;2023-04-09T04:17:35;95589.00;;;7.48;100.00
7182;BME280;3632;42.724;23.298;2023-04-09T04:20:04;95617.19;;;7.85;100.00
7182;BME280;3632;42.724;23.298;2023-04-09T04:22:32;95630.72;;;7.71;100.00
7182;BME280;3632;42.724;23.298;2023-04-09T04:24:59;95621.28;;;7.73;100.00
7182;BME280;3632;42.724;23.298;2023-04-09T04:27:26;95646.41;;;7.63;100.00
7182;BME280;3632;42.724;23.298;2023-04-09T04:29:53;95617.53;;;7.78;100.00
7182;BME280;3632;42.724;23.298;2023-04-09T04:32:19;95507.78;;;6.95;100.00
7182;BME280;3632;42.724;23.298;2023-04-09T04:34:47;95620.38;;;7.74;100.00
7182;BME280;3632;42.724;23.298;2023-04-09T04:37:16;95619.75;;;7.70;100.00
7182;BME280;3632;42.724;23.298;2023-04-09T04:39:42;95331.47;;;5.38;100.00
7182;BME280;3632;42.724;23.298;2023-04-09T04:42:09;95238.13;;;5.21;100.00
7182;BME280;3632;42.724;23.298;2023-04-09T04:44:36;95611.94;;;7.73;100.00
7182;BME280;3632;42.724;23.298;2023-04-09T04:47:02;95470.13;;;7.03;100.00
7182;BME280;3632;42.724;23.298;2023-04-09T04:49:29;95557.84;;;7.73;100.00
7182;BME280;3632;42.724;23.298;2023-04-09T04:51:56;95621.75;;;8.19;100.00
7182;BME280;3632;42.724;23.298;2023-04-09T04:54:24;95635.44;;;8.31;99.40
7182;BME280;3632;42.724;23.298;2023-04-09T04:56:51;95628.69;;;8.44;99.64
7182;BME280;3632;42.724;23.298;2023-04-09T04:59:18;95625.94;;;8.47;99.72
7182;BME280;3632;42.724;23.298;2023-04-09T05:01:44;95634.22;;;8.36;99.53
7182;BME280;3632;42.724;23.298;2023-04-09T05:04:11;95403.06;;;7.08;99.69
7182;BME280;3632;42.724;23.298;2023-04-09T05:06:38;95518.72;;;7.90;99.60
7182;BME280;3632;42.724;23.298;2023-04-09T05:09:05;95621.97;;;8.55;98.98
7182;BME280;3632;42.724;23.298;2023-04-09T05:11:33;95651.97;;;8.63;99.49
7182;BME280;3632;42.724;23.298;2023-04-09T05:14:00;95632.25;;;8.66;99.91
7182;BME280;3632;42.724;23.298;2023-04-09T05:16:26;95364.63;;;7.14;98.91
7182;BME280;3632;42.724;23.298;2023-04-09T05:18:53;95629.25;;;8.87;99.51
7182;BME280;3632;42.724;23.298;2023-04-09T05:21:20;95644.91;;;8.93;98.63
7182;BME280;3632;42.724;23.298;2023-04-09T05:23:47;95434.31;;;6.95;98.73
7182;BME280;3632;42.724;23.298;2023-04-09T05:26:13;95628.44;;;8.99;98.66
7182;BME280;3632;42.724;23.298;2023-04-09T05:28:42;95624.16;;;9.12;98.28
7182;BME280;3632;42.724;23.298;2023-04-09T05:31:08;95626.69;;;9.25;97.01
7182;BME280;3632;42.724;23.298;2023-04-09T05:33:37;95621.81;;;9.09;95.71
7182;BME280;3632;42.724;23.298;2023-04-09T05:36:04;95528.38;;;8.49;94.91
7182;BME280;3632;42.724;23.298;2023-04-09T05:38:31;95623.94;;;9.15;95.46
7182;BME280;3632;42.724;23.298;2023-04-09T05:40:58;95623.03;;;9.29;95.08
7182;BME280;3632;42.724;23.298;2023-04-09T05:43:25;95603.91;;;9.23;94.05
7182;BME280;3632;42.724;23.298;2023-04-09T05:45:53;95629.06;;;9.51;93.47
7182;BME280;3632;42.724;23.298;2023-04-09T05:48:20;95633.84;;;9.56;93.01
7182;BME280;3632;42.724;23.298;2023-04-09T05:50:50;95571.25;;;9.17;93.02
7182;BME280;3632;42.724;23.298;2023-04-09T05:53:17;95647.09;;;9.48;91.84
7182;BME280;3632;42.724;23.298;2023-04-09T05:55:44;95588.66;;;9.10;93.42
7182;BME280;3632;42.724;23.298;2023-04-09T05:58:12;95368.00;;;7.79;94.05
7182;BME280;3632;42.724;23.298;2023-04-09T06:00:39;95696.97;;;9.51;94.42
7182;BME280;3632;42.724;23.298;2023-04-09T06:03:08;95461.66;;;8.47;94.90
7182;BME280;3632;42.724;23.298;2023-04-09T06:05:34;95633.63;;;9.59;94.19
7182;BME280;3632;42.724;23.298;2023-04-09T06:08:01;95650.84;;;9.55;94.48
7182;BME280;3632;42.724;23.298;2023-04-09T06:10:28;95291.63;;;6.40;94.13
7182;BME280;3632;42.724;23.298;2023-04-09T06:12:57;95626.16;;;9.81;94.30
7182;BME280;3632;42.724;23.298;2023-04-09T06:15:24;95620.16;;;10.06;91.98
7182;BME280;3632;42.724;23.298;2023-04-09T06:17:50;95627.50;;;9.98;91.25
7182;BME280;3632;42.724;23.298;2023-04-09T06:20:19;95470.94;;;8.85;91.01
7182;BME280;3632;42.724;23.298;2023-04-09T06:22:45;95630.38;;;10.30;89.60
7182;BME280;3632;42.724;23.298;2023-04-09T06:25:12;95471.97;;;9.18;90.03
7182;BME280;3632;42.724;23.298;2023-04-09T06:27:39;95633.78;;;10.41;88.44
7182;BME280;3632;42.724;23.298;2023-04-09T06:30:07;95625.81;;;10.57;86.78
7182;BME280;3632;42.724;23.298;2023-04-09T06:32:34;95588.72;;;9.94;84.97
7182;BME280;3632;42.724;23.298;2023-04-09T06:35:01;95634.34;;;10.80;84.91
7182;BME280;3632;42.724;23.298;2023-04-09T06:37:29;95117.59;;;7.56;84.49
7182;BME280;3632;42.724;23.298;2023-04-09T06:39:56;95364.75;;;8.77;83.12
7182;BME280;3632;42.724;23.298;2023-04-09T06:42:23;95647.50;;;11.09;82.36
7182;BME280;3632;42.724;23.298;2023-04-09T06:44:51;95192.22;;;8.14;81.68
7182;BME280;3632;42.724;23.298;2023-04-09T06:47:17;95663.72;;;11.08;83.51
7182;BME280;3632;42.724;23.298;2023-04-09T06:49:44;95645.19;;;11.17;82.69
7182;BME280;3632;42.724;23.298;2023-04-09T06:52:11;95649.03;;;11.22;83.00
7182;BME280;3632;42.724;23.298;2023-04-09T06:54:39;95643.13;;;11.22;82.64
7182;BME280;3632;42.724;23.298;2023-04-09T06:57:07;95641.59;;;10.97;80.34
7182;BME280;3632;42.724;23.298;2023-04-09T06:59:33;95573.59;;;10.51;82.48
7182;BME280;3632;42.724;23.298;2023-04-09T07:02:00;95549.09;;;10.38;81.33
7182;BME280;3632;42.724;23.298;2023-04-09T07:04:27;95601.63;;;10.51;81.21
7182;BME280;3632;42.724;23.298;2023-04-09T07:06:54;95656.44;;;11.03;79.95
7182;BME280;3632;42.724;23.298;2023-04-09T07:09:23;95592.66;;;10.92;79.86
7182;BME280;3632;42.724;23.298;2023-04-09T07:11:51;95650.19;;;11.18;80.15
7182;BME280;3632;42.724;23.298;2023-04-09T07:14:18;95641.72;;;11.51;79.94
7182;BME280;3632;42.724;23.298;2023-04-09T07:16:45;95634.41;;;11.69;79.45
7182;BME280;3632;42.724;23.298;2023-04-09T07:19:11;95637.31;;;11.86;77.24
7182;BME280;3632;42.724;23.298;2023-04-09T07:21:38;95644.00;;;12.10;76.09
7182;BME280;3632;42.724;23.298;2023-04-09T07:24:06;95645.97;;;12.17;74.82
7182;BME280;3632;42.724;23.298;2023-04-09T07:26:32;95658.19;;;12.03;76.50
7182;BME280;3632;42.724;23.298;2023-04-09T07:29:00;95555.69;;;10.97;76.91
7182;BME280;3632;42.724;23.298;2023-04-09T07:31:28;95646.50;;;11.78;76.81
7182;BME280;3632;42.724;23.298;2023-04-09T07:33:54;95591.75;;;11.15;77.30
7182;BME280;3632;42.724;23.298;2023-04-09T07:36:21;95658.09;;;12.04;75.20
7182;BME280;3632;42.724;23.298;2023-04-09T07:38:48;95652.50;;;11.99;75.48
7182;BME280;3632;42.724;23.298;2023-04-09T07:41:15;95643.94;;;11.56;75.11
7182;BME280;3632;42.724;23.298;2023-04-09T07:43:41;95649.06;;;11.44;76.57
7182;BME280;3632;42.724;23.298;2023-04-09T07:46:10;95656.81;;;11.32;76.27
7182;BME280;3632;42.724;23.298;2023-04-09T07:48:36;95659.38;;;11.43;77.48
7182;BME280;3632;42.724;23.298;2023-04-09T07:51:03;95687.69;;;11.51;74.55
7182;BME280;3632;42.724;23.298;2023-04-09T07:53:30;95665.28;;;11.55;75.11
7182;BME280;3632;42.724;23.298;2023-04-09T07:55:57;95513.25;;;10.74;71.87
7182;BME280;3632;42.724;23.298;2023-04-09T07:58:23;95675.50;;;11.66;71.76
7182;BME280;3632;42.724;23.298;2023-04-09T08:00:50;95662.84;;;11.64;70.35
7182;BME280;3632;42.724;23.298;2023-04-09T08:03:18;95371.94;;;9.77;69.96
7182;BME280;3632;42.724;23.298;2023-04-09T08:05:46;95652.91;;;11.83;69.34
7182;BME280;3632;42.724;23.298;2023-04-09T08:08:13;95710.34;;;11.78;69.37
7182;BME280;3632;42.724;23.298;2023-04-09T08:10:40;95661.31;;;12.06;68.76
7182;BME280;3632;42.724;23.298;2023-04-09T08:13:07;95685.69;;;12.10;68.69
7182;BME280;3632;42.724;23.298;2023-04-09T08:15:34;95667.63;;;11.91;67.77
7182;BME280;3632;42.724;23.298;2023-04-09T08:18:01;95664.25;;;11.68;71.01
7182;BME280;3632;42.724;23.298;2023-04-09T08:20:29;95674.38;;;11.92;71.19
7182;BME280;3632;42.724;23.298;2023-04-09T08:22:57;95679.88;;;12.19;69.27
7182;BME280;3632;42.724;23.298;2023-04-09T08:25:25;95195.31;;;8.89;67.26
7182;BME280;3632;42.724;23.298;2023-04-09T08:27:52;95690.28;;;12.39;68.14
7182;BME280;3632;42.724;23.298;2023-04-09T08:30:19;95465.59;;;11.19;68.27
7182;BME280;3632;42.724;23.298;2023-04-09T08:32:45;95665.53;;;11.96;66.89
7182;BME280;3632;42.724;23.298;2023-04-09T08:35:13;95672.69;;;12.02;71.57
7182;BME280;3632;42.724;23.298;2023-04-09T08:37:42;95717.19;;;11.77;70.03
7182;BME280;3632;42.724;23.298;2023-04-09T08:40:09;95132.97;;;8.50;72.17
7182;BME280;3632;42.724;23.298;2023-04-09T08:42:42;95558.69;;;10.91;69.29
7182;BME280;3632;42.724;23.298;2023-04-09T08:45:10;95664.84;;;11.72;71.40
7182;BME280;3632;42.724;23.298;2023-04-09T08:47:40;95674.84;;;11.75;71.05
7182;BME280;3632;42.724;23.298;2023-04-09T08:50:07;95658.19;;;12.03;69.26
7182;BME280;3632;42.724;23.298;2023-04-09T08:52:34;95573.13;;;11.80;70.89
7182;BME280;3632;42.724;23.298;2023-04-09T08:55:04;95277.91;;;10.20;70.72
7182;BME280;3632;42.724;23.298;2023-04-09T08:57:36;95659.41;;;12.83;68.10
7182;BME280;3632;42.724;23.298;2023-04-09T09:00:03;95649.25;;;12.93;68.69
7182;BME280;3632;42.724;23.298;2023-04-09T09:02:30;95603.50;;;12.78;67.29
7182;BME280;3632;42.724;23.298;2023-04-09T09:04:57;95606.13;;;12.67;66.63
7182;BME280;3632;42.724;23.298;2023-04-09T09:07:26;95483.69;;;11.59;66.83
7182;BME280;3632;42.724;23.298;2023-04-09T09:09:54;95647.97;;;12.46;70.59
7182;BME280;3632;42.724;23.298;2023-04-09T09:12:34;95643.56;;;12.68;68.34
7182;BME280;3632;42.724;23.298;2023-04-09T09:15:03;95549.50;;;12.30;67.21
7182;BME280;3632;42.724;23.298;2023-04-09T09:17:30;95642.75;;;12.47;65.37
7182;BME280;3632;42.724;23.298;2023-04-09T09:19:57;95637.81;;;12.55;67.26
7182;BME280;3632;42.724;23.298;2023-04-09T09:22:24;95684.56;;;12.46;65.73
7182;BME280;3632;42.724;23.298;2023-04-09T09:24:52;95607.13;;;12.55;66.14
7182;BME280;3632;42.724;23.298;2023-04-09T09:27:35;95630.72;;;12.79;66.38
7182;BME280;3632;42.724;23.298;2023-04-09T09:30:05;95530.88;;;11.33;63.80
7182;BME280;3632;42.724;23.298;2023-04-09T09:32:33;95317.66;;;11.08;65.10
7182;BME280;3632;42.724;23.298;2023-04-09T09:35:01;95634.16;;;12.90;65.26
7182;BME280;3632;42.724;23.298;2023-04-09T09:37:29;95630.28;;;12.95;65.63
7182;BME280;3632;42.724;23.298;2023-04-09T09:39:56;95655.41;;;12.90;66.70
7182;BME280;3632;42.724;23.298;2023-04-09T09:42:23;95630.88;;;13.08;64.31
7182;BME280;3632;42.724;23.298;2023-04-09T09:44:52;95628.91;;;12.70;63.71
7182;BME280;3632;42.724;23.298;2023-04-09T09:47:19;95633.53;;;12.97;68.51
7182;BME280;3632;42.724;23.298;2023-04-09T09:49:47;95630.16;;;12.97;65.27
7182;BME280;3632;42.724;23.298;2023-04-09T09:52:16;95628.91;;;12.70;65.48
7182;BME280;3632;42.724;23.298;2023-04-09T09:54:47;95613.38;;;12.83;65.82
7182;BME280;3632;42.724;23.298;2023-04-09T09:57:16;95563.75;;;12.95;65.85
7182;BME280;3632;42.724;23.298;2023-04-09T09:59:49;95614.28;;;13.54;65.26
7182;BME280;3632;42.724;23.298;2023-04-09T10:02:21;95613.59;;;13.92;64.90
7182;BME280;3632;42.724;23.298;2023-04-09T10:04:49;95605.81;;;14.12;60.70
7182;BME280;3632;42.724;23.298;2023-04-09T10:07:18;95601.72;;;13.91;58.89
7182;BME280;3632;42.724;23.298;2023-04-09T10:09:48;95602.16;;;14.25;60.24
7182;BME280;3632;42.724;23.298;2023-04-09T10:12:16;95598.94;;;14.13;59.20
7182;BME280;3632;42.724;23.298;2023-04-09T10:14:44;95596.41;;;14.42;61.40
7182;BME280;3632;42.724;23.298;2023-04-09T10:17:11;95568.03;;;14.72;59.39
7182;BME280;3632;42.724;23.298;2023-04-09T10:19:43;95600.81;;;15.34;58.72
7182;BME280;3632;42.724;23.298;2023-04-09T10:22:17;95375.94;;;14.13;55.99
7182;BME280;3632;42.724;23.298;2023-04-09T10:24:47;95585.09;;;15.37;53.54
7182;BME280;3632;42.724;23.298;2023-04-09T10:27:15;95594.22;;;14.76;53.67
7182;BME280;3632;42.724;23.298;2023-04-09T10:29:43;95577.72;;;14.30;54.55
7182;BME280;3632;42.724;23.298;2023-04-09T10:32:11;95231.25;;;12.17;54.78
7182;BME280;3632;42.724;23.298;2023-04-09T10:34:41;95031.81;;;10.39;54.23
7182;BME280;3632;42.724;23.298;2023-04-09T10:37:14;95581.78;;;14.33;58.57
7182;BME280;3632;42.724;23.298;2023-04-09T10:39:43;95582.94;;;14.96;56.11
7182;BME280;3632;42.724;23.298;2023-04-09T10:42:13;95585.28;;;15.26;53.53
7182;BME280;3632;42.724;23.298;2023-04-09T10:44:41;95577.06;;;15.23;53.47
7182;BME280;3632;42.724;23.298;2023-04-09T10:47:09;95478.53;;;14.59;54.72
7182;BME280;3632;42.724;23.298;2023-04-09T10:49:37;95565.63;;;15.44;53.47
7182;BME280;3632;42.724;23.298;2023-04-09T10:52:06;95490.09;;;15.10;52.65
7182;BME280;3632;42.724;23.298;2023-04-09T10:54:44;95556.22;;;16.08;52.84
7182;BME280;3632;42.724;23.298;2023-04-09T10:57:19;95225.13;;;13.71;50.55
7182;BME280;3632;42.724;23.298;2023-04-09T10:59:47;95547.75;;;16.51;52.01
7182;BME280;3632;42.724;23.298;2023-04-09T11:05:23;95077.00;;;14.30;49.88
7182;BME280;3632;42.724;23.298;2023-04-09T11:07:56;95462.59;;;17.38;48.52
7182;BME280;3632;42.724;23.298;2023-04-09T11:10:23;95539.44;;;17.42;46.35
7182;BME280;3632;42.724;23.298;2023-04-09T11:12:51;95529.97;;;17.51;48.01
7182;BME280;3632;42.724;23.298;2023-04-09T11:15:18;95414.28;;;16.56;48.51
7182;BME280;3632;42.724;23.298;2023-04-09T11:17:46;95454.81;;;17.13;47.49
7182;BME280;3632;42.724;23.298;2023-04-09T11:20:13;95467.03;;;17.11;49.07
7182;BME280;3632;42.724;23.298;2023-04-09T11:22:40;95527.13;;;17.28;48.49
7182;BME280;3632;42.724;23.298;2023-04-09T11:25:08;95490.50;;;16.74;48.49
7182;BME280;3632;42.724;23.298;2023-04-09T11:27:39;95402.47;;;15.93;49.77
7182;BME280;3632;42.724;23.298;2023-04-09T11:30:11;95521.69;;;16.71;50.31
7182;BME280;3632;42.724;23.298;2023-04-09T11:32:37;95536.91;;;16.65;49.03
7182;BME280;3632;42.724;23.298;2023-04-09T11:35:10;95525.81;;;16.64;49.11
7182;BME280;3632;42.724;23.298;2023-04-09T11:37:38;95168.41;;;14.21;47.74
7182;BME280;3632;42.724;23.298;2023-04-09T11:40:12;95377.59;;;14.78;46.87
7182;BME280;3632;42.724;23.298;2023-04-09T11:42:40;95531.88;;;15.30;48.83
7182;BME280;3632;42.724;23.298;2023-04-09T11:45:08;95458.72;;;14.13;49.44
7182;BME280;3632;42.724;23.298;2023-04-09T11:47:35;95533.59;;;14.27;51.08
7182;BME280;3632;42.724;23.298;2023-04-09T11:50:04;95281.03;;;12.32;52.24
7182;BME280;3632;42.724;23.298;2023-04-09T11:52:31;95534.25;;;13.71;53.29
7182;BME280;3632;42.724;23.298;2023-04-09T11:55:00;95526.47;;;13.82;53.77
7182;BME280;3632;42.724;23.298;2023-04-09T11:57:38;95526.59;;;13.90;52.77
7182;BME280;3632;42.724;23.298;2023-04-09T12:00:07;95517.00;;;13.92;52.28
7182;BME280;3632;42.724;23.298;2023-04-09T12:02:37;95511.63;;;14.24;51.98
7182;BME280;3632;42.724;23.298;2023-04-09T12:05:06;95508.94;;;14.35;49.87
7182;BME280;3632;42.724;23.298;2023-04-09T12:07:33;95505.69;;;14.33;48.72
7182;BME280;3632;42.724;23.298;2023-04-09T12:10:03;95510.28;;;13.82;48.80
7182;BME280;3632;42.724;23.298;2023-04-09T12:12:30;95512.44;;;14.15;49.10
7182;BME280;3632;42.724;23.298;2023-04-09T12:15:06;95167.56;;;11.95;49.28
7182;BME280;3632;42.724;23.298;2023-04-09T12:17:35;95396.06;;;13.31;48.63
7182;BME280;3632;42.724;23.298;2023-04-09T12:20:02;95501.38;;;13.95;47.88
7182;BME280;3632;42.724;23.298;2023-04-09T12:22:31;94887.00;;;10.35;47.90
7182;BME280;3632;42.724;23.298;2023-04-09T12:24:58;95505.97;;;14.21;47.93
7182;BME280;3632;42.724;23.298;2023-04-09T12:27:24;95499.44;;;14.64;48.62
7182;BME280;3632;42.724;23.298;2023-04-09T12:29:51;95496.19;;;15.09;50.80
7182;BME280;3632;42.724;23.298;2023-04-09T12:32:20;95519.25;;;15.19;51.60
7182;BME280;3632;42.724;23.298;2023-04-09T12:34:47;95496.84;;;15.66;50.28
7182;BME280;3632;42.724;23.298;2023-04-09T12:37:14;95494.72;;;15.61;50.36
7182;BME280;3632;42.724;23.298;2023-04-09T12:39:41;95490.81;;;15.92;49.64
7182;BME280;3632;42.724;23.298;2023-04-09T12:42:07;95489.66;;;15.69;50.02
7182;BME280;3632;42.724;23.298;2023-04-09T12:44:34;95488.03;;;15.41;50.64
7182;BME280;3632;42.724;23.298;2023-04-09T12:47:01;95483.69;;;15.41;50.63
7182;BME280;3632;42.724;23.298;2023-04-09T12:49:29;95346.31;;;14.38;50.85
7182;BME280;3632;42.724;23.298;2023-04-09T12:51:57;95479.44;;;15.60;50.35
7182;BME280;3632;42.724;23.298;2023-04-09T12:54:24;95479.88;;;15.73;49.44
7182;BME280;3632;42.724;23.298;2023-04-09T12:56:51;95572.78;;;15.41;46.85
7182;BME280;3632;42.724;23.298;2023-04-09T12:59:17;95450.56;;;15.21;46.58
7182;BME280;3632;42.724;23.298;2023-04-09T13:01:44;95336.59;;;14.41;47.98
7182;BME280;3632;42.724;23.298;2023-04-09T13:04:11;95479.41;;;15.15;47.06
7182;BME280;3632;42.724;23.298;2023-04-09T13:06:40;95472.91;;;14.83;48.07
7182;BME280;3632;42.724;23.298;2023-04-09T13:09:06;95201.97;;;13.17;47.89
7182;BME280;3632;42.724;23.298;2023-04-09T13:11:33;95489.84;;;14.67;48.44
7182;BME280;3632;42.724;23.298;2023-04-09T13:14:00;95144.03;;;11.81;49.30
7182;BME280;3632;42.724;23.298;2023-04-09T13:16:26;95493.47;;;14.64;48.73
7182;BME280;3632;42.724;23.298;2023-04-09T13:18:53;95470.66;;;14.71;48.71